Nearby METAR Reports

 

KSJC - San Jose, California, USA
Distance from station: NE 9mi, 14km
Updated: Sun, 24-Oct-2021 3:53pm EDT
Light rain, Overcast
Light rain, Overcast
 Wind from SSE
Wind: SSE 12 mph , 19 km/h, Gust: 24 mph , 39 km/h
Temperature: 64°F , 18°C
Dew Point: 59°F , 15°C
Humidity: 83%
Barometer: 29.67 inHg , 1004.7 hPa
Summary: Light rain
Clouds: Overcast
Visibility: 9 miles , 14 km
Cloud details: Few Clouds 0 ft
Mostly cloudy 2500 ft
Overcast 5500 ft
2021/10/24 19:53 KSJC 241953Z 16010G21KT 9SM -RA FEW000 BKN025 OVC055 18/15 A2967 RMK AO2 SLP048 P0000 T01780150
KNUQ - Moffett Nas/Mtn, California, USA
Distance from station: N 9mi, 14km
Updated: Fri, 22-Oct-2021 5:15am EDT
NOT Current
Overcast
Overcast
 Wind from ESE
Wind: ESE 14 mph , 22 km/h
Temperature: 64°F , 18°C
Dew Point: 57°F , 14°C
Humidity: 78%
Barometer: 29.99 inHg , 1015.6 hPa
Clouds: Overcast
Visibility: 10 miles , 16 km
Cloud details: Few Clouds 2200 ft
Overcast 3000 ft
2021/10/22 09:15 KNUQ 220915Z AUTO 11012KT 10SM FEW022 OVC030 18/14 A2999 RMK AO2
 
KPAO - Palo Alto, California, USA
Distance from station: NNW 14mi, 23km
Updated: Sun, 24-Oct-2021 4:47pm EDT
Rain, Overcast
Rain, Overcast
 Wind from S
Wind: S 22 mph , 35 km/h, Gust: 30 mph , 48 km/h
Temperature: 63°F , 17°C
Dew Point: 57°F , 14°C
Humidity: 83%
Barometer: 29.63 inHg , 1003.4 hPa
Summary: Rain
Clouds: Overcast
Visibility: 5 miles , 8 km
Cloud details: Overcast 2200 ft
2021/10/24 20:47 KPAO 242047Z 17019G26KT 5SM RA OVC022 17/14 A2963
KRHV - San Jose/Reid, California, USA
Distance from station: ENE 12mi, 19km
Updated: Sun, 24-Oct-2021 3:55pm EDT
Light rain, Overcast
Light rain, Overcast
 Wind from SE
Wind: SE 21 mph , 33 km/h, Gust: 26 mph , 43 km/h
Temperature: 63°F , 17°C
Dew Point: 57°F , 14°C
Humidity: 83%
Barometer: 29.69 inHg , 1005.4 hPa
Summary: Light rain
Clouds: Overcast
Visibility: 4 miles , 6 km
Cloud details: Mostly cloudy 1500 ft
Overcast 5000 ft
2021/10/24 19:55 KRHV 241955Z 14018G23KT 4SM -RA BKN015 OVC050 17/14 A2969
 
KOAK - Oakland, California, USA
Distance from station: NNW 31mi, 50km
Updated: Sun, 24-Oct-2021 3:53pm EDT
Rain, Mist, Overcast
Rain, Mist, Overcast
 Wind from S
Wind: S 29 mph , 46 km/h, Gust: 41 mph , 67 km/h
Temperature: 64°F , 18°C
Dew Point: 61°F , 16°C
Humidity: 88%
Barometer: 29.62 inHg , 1003 hPa
Summary: Rain, Mist
Clouds: Overcast
Visibility: 2 miles , 3 km
Cloud details: Overcast 2100 ft
2021/10/24 19:53 KOAK 241953Z 18025G36KT 2SM RA BR OVC021 18/16 A2962 RMK AO2 PK WND 18036/1950 SLP030 P0008 T01780156 $
KSQL - San Carlos Airpo, California, USA
Distance from station: NW 21mi, 34km
Updated: Sun, 24-Oct-2021 3:50pm EDT
Light rain, Overcast
Light rain, Overcast
 Wind from S
Wind: S 33 mph , 54 km/h, Gust: 43 mph , 69 km/h
Temperature: 64°F , 18°C
Dew Point: 59°F , 15°C
Humidity: 83%
Barometer: 29.63 inHg , 1003.4 hPa
Summary: Light rain
Clouds: Overcast
Visibility: 1 1/12 miles , 1.7 km
Cloud details: Mostly cloudy 2600 ft
Overcast 3200 ft
2021/10/24 19:50 KSQL 241950Z 19029G37KT 1 1/12SM -RA BKN026 OVC032 18/15 A2963
 
KSFO - San Francisco, California, USA
Distance from station: NW 30mi, 49km
Updated: Sun, 24-Oct-2021 3:56pm EDT
Rain, Mist, Overcast
Rain, Mist, Overcast
 Wind from S
Wind: S 41 mph , 67 km/h, Gust: 55 mph , 89 km/h
Temperature: 63°F , 17°C
Dew Point: 61°F , 16°C
Humidity: 94%
Barometer: 29.60 inHg , 1002.4 hPa
Summary: Rain, Mist
Clouds: Overcast
Visibility: 2 miles , 3 km
Cloud details: Few Clouds 800 ft
Mostly cloudy 2300 ft
Overcast 3500 ft
2021/10/24 19:56 KSFO 241956Z 19036G48KT 2SM RA BR FEW008 BKN023 OVC035 17/16 A2960 RMK AO2 PK WND 18049/1901 SLP023 P0016 T01720156
KE16 - San Martin, California, USA
Distance from station: ESE 27mi, 43km
Updated: Sun, 24-Oct-2021 4:35pm EDT
Overcast
Overcast
 Wind from SSW
Wind: SSW 10 mph , 17 km/h, Gust: 25 mph , 41 km/h
Temperature: 64°F , 18°C
Dew Point: 57°F , 14°C
Humidity: 78%
Barometer: 29.73 inHg , 1006.8 hPa
Clouds: Overcast
Visibility: 10 miles , 16 km
Cloud details: Overcast 2400 ft
2021/10/24 20:35 KE16 242035Z AUTO 20009G22KT 150V220 10SM OVC024 18/14 A2973 RMK AO2 PWINO PNO
 
KWVI - Watsonville, California, USA
Distance from station: SSE 27mi, 44km
Updated: Sun, 24-Oct-2021 4:45pm EDT
Light rain, Overcast
Light rain, Overcast
 Wind from SSW
Wind: SSW 26 mph , 43 km/h, Gust: 43 mph , 69 km/h
Temperature: 63°F , 17°C
Dew Point: 59°F , 15°C
Humidity: 88%
Barometer: 29.73 inHg , 1006.8 hPa
Summary: Light rain
Clouds: Overcast
Visibility: 10 miles , 16 km
Cloud details: Overcast 2900 ft
2021/10/24 20:45 KWVI 242045Z AUTO 20023G37KT 10SM -RA OVC029 17/15 A2973 RMK AO2 PK WND 20040/2034 RAB16 P0000 T01670150
KHAF - Half Moon Bay, California, USA
Distance from station: WNW 31mi, 50km
Updated: Sun, 24-Oct-2021 4:35pm EDT
Light rain, Fog, Overcast
Light rain, Fog, Overcast
 Wind from S
Wind: S 32 mph , 52 km/h, Gust: 39 mph , 63 km/h
Temperature: 59°F , 15°C
Dew Point: 59°F , 15°C
Humidity: 100%
Barometer: 29.63 inHg , 1003.4 hPa
Summary: Light rain, Fog
Clouds: Overcast
Visibility: 1/4 mile , 0.4 km
Cloud details: Overcast 300 ft
2021/10/24 20:35 KHAF 242035Z AUTO 18028G34KT 1/4SM -RA FG OVC003 15/15 A2963 RMK AO2 P0004
 
KHWD - Hayward, California, USA
Distance from station: N 28mi, 44km
Updated: Sun, 24-Oct-2021 3:54pm EDT
Light rain, Mist, Overcast
Light rain, Mist, Overcast
 Wind from S
Wind: S 21 mph , 33 km/h, Gust: 30 mph , 48 km/h
Temperature: 63°F , 17°C
Dew Point: 59°F , 15°C
Humidity: 88%
Barometer: 29.63 inHg , 1003.4 hPa
Summary: Light rain, Mist
Clouds: Overcast
Visibility: 2 miles , 3 km
Cloud details: Overcast 2100 ft
2021/10/24 19:54 KHWD 241954Z 17018G26KT 2SM -RA BR OVC021 17/15 A2963 RMK AO2 PK WND 17031/1937 SLP041 P0011 T01670150
KLVK - Livermore, California, USA
Distance from station: NNE 31mi, 51km
Updated: Sun, 24-Oct-2021 3:53pm EDT
Light rain, Overcast
Light rain, Overcast
 Wind from SSW
Wind: SSW 25 mph , 41 km/h, Gust: 38 mph , 61 km/h
Temperature: 63°F , 17°C
Dew Point: 59°F , 15°C
Humidity: 88%
Barometer: 29.61 inHg , 1002.7 hPa
Summary: Light rain
Clouds: Overcast
Visibility: 7 miles , 11 km
Cloud details: Few Clouds 2800 ft
Mostly cloudy 6500 ft
Overcast 9500 ft
2021/10/24 19:53 KLVK 241953Z 21022G33KT 7SM -RA FEW028 BKN065 OVC095 17/15 A2961 RMK AO2 PK WND 20036/1919 SLP022 P0006 T01720150